Greasewood Springs, Arizona
Current Conditions -  °F | °C
As of 8:53 AM on Tuesday 21 Oct 2014 (Local Time) from KFMN Reporting Station
Overcast Overcast  
Wind Chill: 52°   Ceiling: 10000
Heat Index: 52°   Visibility: 10mi
Dew Point: 44°   Wind: 8mph
Humidity: 74%   Direction: 130°SE
Pressure: 30.14"   Gusts: NA
Location:  36.4446°N, 109.262°W
Report Text: KFMN 211453Z 13007KT 10SM OVC100 11/07 A3014 RMK AO2 SLP179 T01110067 53006
Loading
Personal Weather Stations






























Interactive Weather Map
Tropical Storm Tracking
New forecast layout! Learn more

10-Day Weather Forecast

Advertisements
Track Severe Weather on mobile